createdAt,value
2023-04-11T00:00:14.855Z,1.67
2023-04-11T00:02:42.840Z,2.83
2023-04-11T00:05:12.318Z,3.90
2023-04-11T00:07:40.228Z,2.70
2023-04-11T00:10:08.934Z,2.60
2023-04-11T00:12:36.830Z,2.83
2023-04-11T00:15:05.263Z,2.13
2023-04-11T00:17:33.476Z,2.72
2023-04-11T00:20:07.977Z,1.75
2023-04-11T00:22:38.889Z,4.97
2023-04-11T00:25:07.640Z,4.47
2023-04-11T00:27:35.526Z,1.55
2023-04-11T00:30:03.599Z,3.20
2023-04-11T00:32:31.994Z,4.32
2023-04-11T00:35:00.205Z,4.22
2023-04-11T00:37:28.093Z,2.25
2023-04-11T00:39:58.117Z,3.97
2023-04-11T00:42:25.908Z,1.50
2023-04-11T00:44:54.537Z,1.42
2023-04-11T00:47:22.448Z,3.03
2023-04-11T00:49:50.523Z,1.67
2023-04-11T00:52:19.325Z,1.50
2023-04-11T00:54:47.747Z,3.72
2023-04-11T00:57:17.224Z,3.58
2023-04-11T00:59:48.264Z,3.33
2023-04-11T01:02:18.437Z,3.75
2023-04-11T01:04:46.932Z,3.58
2023-04-11T01:07:16.416Z,4.43
2023-04-11T01:09:45.038Z,3.92
2023-04-11T01:12:15.761Z,3.95
2023-04-11T01:14:47.714Z,4.38
2023-04-11T01:17:16.419Z,2.90
2023-04-11T01:19:44.342Z,5.35
2023-04-11T01:22:14.651Z,6.75
2023-04-11T01:24:44.111Z,2.83
2023-04-11T01:27:12.461Z,4.93
2023-04-11T01:29:40.591Z,4.88
2023-04-11T01:32:08.722Z,4.18
2023-04-11T01:34:38.867Z,2.40
2023-04-11T01:37:07.239Z,5.95
2023-04-11T01:39:35.154Z,3.55
2023-04-11T01:42:05.508Z,6.60
2023-04-11T01:44:34.233Z,4.97
2023-04-11T01:47:04.724Z,5.10
2023-04-11T01:49:33.510Z,7.20
2023-04-11T01:52:01.396Z,6.57
2023-04-11T01:54:29.286Z,7.28
2023-04-11T01:56:57.583Z,7.38
2023-04-11T01:59:26.897Z,5.18
2023-04-11T02:01:54.990Z,6.38
2023-04-11T02:04:23.064Z,9.70
2023-04-11T02:06:51.080Z,4.97
2023-04-11T02:09:20.672Z,5.43
2023-04-11T02:11:48.579Z,5.10
2023-04-11T02:14:18.454Z,8.40
2023-04-11T02:16:55.820Z,8.02
2023-04-11T02:19:26.338Z,8.07
2023-04-11T02:21:55.443Z,5.95
2023-04-11T02:24:23.363Z,9.32
2023-04-11T02:26:51.302Z,7.55
2023-04-11T02:29:19.142Z,11.18
2023-04-11T02:31:49.573Z,8.32
2023-04-11T02:34:20.051Z,12.23
2023-04-11T02:36:48.948Z,8.60
2023-04-11T02:39:17.223Z,9.82
2023-04-11T02:41:45.127Z,8.95
2023-04-11T02:44:13.547Z,12.93
2023-04-11T02:46:43.029Z,11.80
2023-04-11T02:49:11.667Z,12.13
2023-04-11T02:51:41.074Z,12.38
2023-04-11T02:54:09.144Z,7.88
2023-04-11T02:56:39.208Z,9.48
2023-04-11T02:59:07.530Z,11.38
2023-04-11T03:01:37.608Z,9.95
2023-04-11T03:04:07.276Z,10.43
2023-04-11T03:06:49.918Z,12.60
2023-04-11T03:09:18.026Z,14.13
2023-04-11T03:11:47.283Z,10.18
2023-04-11T03:14:16.304Z,10.85
2023-04-11T03:16:44.338Z,9.48
2023-04-11T03:19:13.057Z,12.77
2023-04-11T03:21:40.985Z,11.77
2023-04-11T03:24:12.601Z,19.52
2023-04-11T03:26:41.998Z,16.33
2023-04-11T03:29:13.629Z,16.15
2023-04-11T03:31:57.007Z,10.57
2023-04-11T03:34:26.136Z,16.27
2023-04-11T03:36:55.437Z,15.50
2023-04-11T03:39:26.085Z,13.02
2023-04-11T03:41:54.301Z,13.68
2023-04-11T03:44:22.227Z,13.90
2023-04-11T03:46:50.323Z,11.98
2023-04-11T03:49:18.945Z,11.80
2023-04-11T03:51:52.871Z,19.83
2023-04-11T03:54:21.170Z,18.00
2023-04-11T03:56:50.646Z,14.93
2023-04-11T03:59:23.245Z,13.82
2023-04-11T04:02:04.626Z,17.33
2023-04-11T04:04:34.233Z,15.88
2023-04-11T04:07:11.565Z,16.02
2023-04-11T04:09:43.360Z,11.32
2023-04-11T04:12:13.268Z,12.52
2023-04-11T04:15:15.043Z,10.88
2023-04-11T04:17:46.426Z,15.48
2023-04-11T04:20:21.089Z,14.10
2023-04-11T04:22:54.392Z,14.85
2023-04-11T04:25:30.460Z,15.43
2023-04-11T04:28:01.162Z,18.80
2023-04-11T04:30:38.230Z,13.95
2023-04-11T04:33:12.455Z,12.70
2023-04-11T04:35:45.188Z,14.73
2023-04-11T04:38:17.598Z,11.95
2023-04-11T04:40:50.519Z,13.07
2023-04-11T04:43:24.563Z,11.55
2023-04-11T04:46:12.825Z,13.82
2023-04-11T04:48:51.035Z,20.55
2023-04-11T04:51:19.055Z,13.68
2023-04-11T04:53:47.780Z,13.75
2023-04-11T04:56:16.357Z,10.15
2023-04-11T04:58:48.918Z,10.85
2023-04-11T05:01:18.912Z,10.57
2023-04-11T05:03:58.664Z,9.80
2023-04-11T05:06:39.185Z,14.07
2023-04-11T05:09:07.208Z,10.38
2023-04-11T05:11:35.763Z,9.63
2023-04-11T05:14:06.032Z,11.00
2023-04-11T05:16:37.536Z,12.25
2023-04-11T05:19:05.497Z,12.32
2023-04-11T05:21:35.917Z,11.60
2023-04-11T05:24:03.824Z,13.02
2023-04-11T05:26:36.254Z,7.75
2023-04-11T05:29:06.631Z,14.98
2023-04-11T05:31:34.850Z,16.10
2023-04-11T05:34:03.593Z,12.93
2023-04-11T05:36:31.801Z,11.93
2023-04-11T05:38:59.914Z,15.18
2023-04-11T05:41:29.160Z,12.68
2023-04-11T05:43:57.425Z,11.82
2023-04-11T05:46:29.381Z,11.32
2023-04-11T05:48:58.623Z,10.43
2023-04-11T05:51:26.513Z,17.50
2023-04-11T05:53:54.633Z,9.27
2023-04-11T05:56:22.668Z,21.98
2023-04-11T05:58:50.579Z,15.43
2023-04-11T06:01:19.511Z,9.85
2023-04-11T06:03:49.848Z,10.70
2023-04-11T06:06:17.978Z,13.68
2023-04-11T06:08:46.107Z,11.57
2023-04-11T06:11:13.933Z,13.82
2023-04-11T06:13:41.718Z,11.25
2023-04-11T06:16:10.203Z,11.15
2023-04-11T06:18:38.162Z,6.50
2023-04-11T06:21:07.502Z,10.13
2023-04-11T06:23:35.342Z,13.43
2023-04-11T06:26:03.258Z,10.85
2023-04-11T06:28:31.121Z,12.15
2023-04-11T06:30:59.164Z,15.95
2023-04-11T06:33:27.050Z,16.77
2023-04-11T06:35:54.922Z,9.85
2023-04-11T06:38:24.216Z,14.38
2023-04-11T06:40:54.511Z,11.25
2023-04-11T06:43:22.364Z,9.77
2023-04-11T06:45:51.483Z,9.85
2023-04-11T06:48:20.910Z,10.00
2023-04-11T06:50:49.737Z,15.27
2023-04-11T06:53:17.613Z,10.00
2023-04-11T06:55:49.502Z,13.85
2023-04-11T06:58:17.459Z,12.32
2023-04-11T07:00:45.231Z,11.18
2023-04-11T07:03:14.036Z,10.07
2023-04-11T07:05:41.951Z,9.25
2023-04-11T07:08:09.944Z,10.30
2023-04-11T07:10:37.865Z,11.00
2023-04-11T07:13:07.059Z,8.35
2023-04-11T07:15:34.866Z,12.55
2023-04-11T07:18:02.948Z,13.75
2023-04-11T07:20:32.815Z,12.20
2023-04-11T07:23:00.748Z,12.50
2023-04-11T07:25:30.479Z,12.45
2023-04-11T07:27:58.540Z,8.85
2023-04-11T07:30:27.816Z,10.70
2023-04-11T07:32:55.914Z,9.43
2023-04-11T07:35:23.998Z,8.88
2023-04-11T07:37:53.609Z,11.07
2023-04-11T07:40:21.982Z,11.30
2023-04-11T07:42:49.870Z,12.60
2023-04-11T07:45:17.697Z,11.45
2023-04-11T07:47:46.947Z,15.02
2023-04-11T07:50:14.775Z,10.70
2023-04-11T07:52:42.577Z,9.10
2023-04-11T07:55:11.408Z,9.82
2023-04-11T07:57:39.547Z,10.63
2023-04-11T08:00:11.535Z,8.80
2023-04-11T08:02:42.703Z,9.75
2023-04-11T08:05:12.348Z,7.90
2023-04-11T08:07:41.265Z,7.50
2023-04-11T08:10:10.052Z,12.18
2023-04-11T08:12:37.886Z,9.45
2023-04-11T08:15:06.912Z,9.88
2023-04-11T08:17:38.082Z,10.95
2023-04-11T08:20:09.292Z,6.95
2023-04-11T08:22:38.962Z,13.80
2023-04-11T08:25:08.622Z,10.00
2023-04-11T08:27:36.802Z,7.32
2023-04-11T08:30:05.990Z,12.35
2023-04-11T08:32:33.873Z,6.28
2023-04-11T08:35:02.592Z,7.07
2023-04-11T08:37:31.801Z,9.52
2023-04-11T08:40:00.988Z,10.50
2023-04-11T08:42:30.938Z,9.10
2023-04-11T08:45:00.680Z,8.38
2023-04-11T08:47:28.888Z,6.72
2023-04-11T08:49:57.583Z,7.72
2023-04-11T08:52:26.349Z,6.70
2023-04-11T08:54:55.882Z,8.52
2023-04-11T08:57:27.567Z,5.40
2023-04-11T08:59:57.101Z,5.93
2023-04-11T09:02:25.673Z,7.40
2023-04-11T09:04:54.660Z,6.45
2023-04-11T09:07:22.509Z,7.85
2023-04-11T09:09:50.363Z,9.05
2023-04-11T09:12:22.917Z,3.92
2023-04-11T09:14:52.128Z,7.45
2023-04-11T09:17:19.916Z,5.72
2023-04-11T09:19:49.101Z,5.80
2023-04-11T09:22:17.449Z,5.97
2023-04-11T09:24:46.698Z,2.55
2023-04-11T09:27:16.723Z,4.22
2023-04-11T09:29:46.436Z,5.45
2023-04-11T09:32:32.531Z,3.42
2023-04-11T09:35:09.677Z,5.68
2023-04-11T09:37:48.479Z,7.40
2023-04-11T09:40:18.419Z,5.45
2023-04-11T09:42:47.886Z,6.55
2023-04-11T09:45:20.393Z,5.50
2023-04-11T09:47:51.574Z,6.57
2023-04-11T09:50:20.316Z,3.45
2023-04-11T09:52:48.515Z,5.43
2023-04-11T09:55:20.510Z,8.43
2023-04-11T09:57:50.016Z,4.78
2023-04-11T10:00:22.119Z,7.72
2023-04-11T10:02:54.888Z,6.55
2023-04-11T10:05:27.537Z,4.63
2023-04-11T10:08:06.171Z,6.93
2023-04-11T10:10:34.231Z,6.22
2023-04-11T10:13:02.260Z,5.25
2023-04-11T10:15:30.427Z,4.72
2023-04-11T10:18:13.710Z,4.95
2023-04-11T10:20:43.750Z,5.15
2023-04-11T10:23:12.751Z,3.97
2023-04-11T10:26:01.198Z,5.90
2023-04-11T10:28:38.288Z,6.65
2023-04-11T10:31:09.024Z,7.00
2023-04-11T10:33:39.714Z,8.23
2023-04-11T10:36:10.119Z,4.50
2023-04-11T10:38:48.924Z,7.20
2023-04-11T10:41:19.359Z,5.70
2023-04-11T10:43:47.620Z,5.07
2023-04-11T10:46:20.846Z,4.47
2023-04-11T10:49:00.730Z,6.40
2023-04-11T10:51:30.030Z,6.03
2023-04-11T10:54:00.295Z,7.57
2023-04-11T10:56:56.698Z,10.40
2023-04-11T10:59:57.775Z,6.22
2023-04-11T11:02:37.074Z,7.80
2023-04-11T11:05:18.320Z,5.47
2023-04-11T11:07:51.131Z,5.13
2023-04-11T11:10:43.407Z,10.10
2023-04-11T11:13:11.554Z,4.25
2023-04-11T11:15:39.831Z,4.90
2023-04-11T11:18:09.994Z,5.13
2023-04-11T11:20:40.999Z,4.68
2023-04-11T11:23:11.308Z,8.15
2023-04-11T11:25:39.420Z,5.18
2023-04-11T11:28:08.665Z,6.55
2023-04-11T11:30:37.933Z,5.05
2023-04-11T11:33:17.773Z,3.72
2023-04-11T11:35:53.425Z,7.50
2023-04-11T11:38:22.421Z,5.00
2023-04-11T11:40:50.735Z,7.20
2023-04-11T11:43:18.856Z,4.97
2023-04-11T11:45:47.050Z,6.47
2023-04-11T11:48:22.302Z,5.97
2023-04-11T11:50:57.882Z,5.95
2023-04-11T11:53:26.695Z,3.60
2023-04-11T11:55:56.766Z,5.22
2023-04-11T11:58:24.981Z,5.82
2023-04-11T12:00:53.508Z,5.97
2023-04-11T12:03:24.013Z,7.25
2023-04-11T12:05:53.756Z,4.13
2023-04-11T12:08:23.197Z,3.60
2023-04-11T12:10:51.650Z,6.53
2023-04-11T12:13:22.486Z,4.53
2023-04-11T12:15:51.944Z,3.88
2023-04-11T12:18:22.087Z,3.72
2023-04-11T12:20:50.214Z,4.88
2023-04-11T12:23:18.379Z,7.93
2023-04-11T12:25:48.361Z,8.40
2023-04-11T12:28:16.737Z,4.45
2023-04-11T12:30:44.811Z,8.02
2023-04-11T12:33:12.718Z,7.70
2023-04-11T12:35:40.667Z,4.00
2023-04-11T12:38:08.952Z,7.50
2023-04-11T12:40:37.572Z,6.18
2023-04-11T12:43:06.842Z,6.10
2023-04-11T12:45:34.907Z,5.28
2023-04-11T12:48:02.732Z,3.90
2023-04-11T12:50:30.926Z,4.18
2023-04-11T12:52:58.853Z,3.53
2023-04-11T12:55:26.916Z,6.43
2023-04-11T12:57:54.881Z,4.15
2023-04-11T13:00:24.335Z,4.90
2023-04-11T13:02:53.453Z,5.70
2023-04-11T13:05:22.561Z,5.00
2023-04-11T13:07:50.652Z,6.45
2023-04-11T13:10:18.471Z,3.03
2023-04-11T13:12:48.018Z,4.18
2023-04-11T13:15:17.338Z,5.30
2023-04-11T13:17:47.117Z,5.20
2023-04-11T13:20:15.031Z,4.30
2023-04-11T13:22:44.314Z,4.38
2023-04-11T13:25:12.591Z,7.32
2023-04-11T13:27:40.526Z,5.57
2023-04-11T13:30:10.213Z,3.90
2023-04-11T13:32:38.129Z,4.45
2023-04-11T13:35:08.454Z,5.30
2023-04-11T13:37:36.328Z,4.70
2023-04-11T13:40:08.327Z,6.25
2023-04-11T13:42:36.237Z,3.25
2023-04-11T13:45:04.530Z,5.13
2023-04-11T13:47:32.464Z,7.10
2023-04-11T13:50:00.480Z,7.25
2023-04-11T13:52:29.652Z,7.82
2023-04-11T13:54:57.440Z,5.93
2023-04-11T13:57:25.376Z,5.88
2023-04-11T13:59:53.185Z,9.15
2023-04-11T14:02:21.476Z,5.15
2023-04-11T14:04:49.949Z,6.18
2023-04-11T14:07:17.804Z,5.72
2023-04-11T14:09:50.195Z,4.32
2023-04-11T14:12:18.155Z,4.82
2023-04-11T14:14:45.980Z,4.32
2023-04-11T14:17:13.890Z,3.97
2023-04-11T14:19:41.839Z,4.20
2023-04-11T14:22:09.740Z,2.03
2023-04-11T14:24:37.802Z,6.28
2023-04-11T14:27:07.308Z,4.03
2023-04-11T14:29:37.325Z,4.90
2023-04-11T14:32:07.025Z,4.05
2023-04-11T14:34:34.881Z,2.80
2023-04-11T14:37:02.779Z,6.40
2023-04-11T14:39:31.637Z,6.05
2023-04-11T14:42:01.859Z,4.15
2023-04-11T14:44:31.117Z,8.02
2023-04-11T14:46:59.067Z,5.90
2023-04-11T14:49:27.045Z,4.63
2023-04-11T14:51:54.924Z,6.22
2023-04-11T14:54:24.183Z,6.57
2023-04-11T14:56:52.352Z,4.30
2023-04-11T14:59:20.840Z,6.35
2023-04-11T15:01:50.106Z,9.95
2023-04-11T15:04:18.175Z,5.60
2023-04-11T15:06:46.488Z,6.72
2023-04-11T15:09:19.733Z,7.20
2023-04-11T15:11:48.093Z,5.45
2023-04-11T15:14:15.976Z,9.02
2023-04-11T15:16:43.850Z,7.85
2023-04-11T15:19:13.132Z,6.53
2023-04-11T15:21:41.087Z,10.40
2023-04-11T15:24:08.963Z,4.90
2023-04-11T15:26:36.789Z,5.20
2023-04-11T15:29:04.652Z,4.45
2023-04-11T15:31:32.573Z,4.22
2023-04-11T15:34:03.810Z,4.50
2023-04-11T15:36:34.098Z,3.05
2023-04-11T15:39:01.974Z,6.55
2023-04-11T15:41:31.929Z,8.30
2023-04-11T15:44:01.488Z,6.20
2023-04-11T15:46:30.100Z,3.60
2023-04-11T15:48:57.949Z,4.75
2023-04-11T15:51:27.397Z,5.57
2023-04-11T15:53:56.751Z,5.18
2023-04-11T15:56:24.749Z,4.72
2023-04-11T15:58:52.566Z,4.88
2023-04-11T16:01:25.724Z,4.00
2023-04-11T16:03:55.207Z,8.07
2023-04-11T16:06:23.241Z,6.35
2023-04-11T16:08:51.685Z,7.65
2023-04-11T16:11:21.091Z,6.85
2023-04-11T16:13:49.038Z,6.32
2023-04-11T16:16:16.974Z,3.97
2023-04-11T16:18:44.885Z,6.60
2023-04-11T16:21:13.553Z,10.50
2023-04-11T16:23:41.440Z,11.68
2023-04-11T16:26:10.787Z,8.43
2023-04-11T16:28:40.074Z,6.32
2023-04-11T16:31:09.265Z,6.28
2023-04-11T16:33:37.164Z,4.82
2023-04-11T16:36:05.613Z,6.05
2023-04-11T16:38:33.512Z,5.30
2023-04-11T16:41:01.566Z,6.05
2023-04-11T16:43:29.319Z,10.95
2023-04-11T16:45:58.676Z,5.63
2023-04-11T16:48:27.104Z,7.53
2023-04-11T16:50:54.977Z,5.93
2023-04-11T16:53:22.872Z,5.45
2023-04-11T16:55:52.557Z,7.47
2023-04-11T16:58:20.430Z,8.77
2023-04-11T17:00:49.177Z,4.03
2023-04-11T17:03:18.727Z,4.95
2023-04-11T17:05:46.809Z,4.88
2023-04-11T17:08:15.683Z,6.10
2023-04-11T17:10:44.061Z,3.40
2023-04-11T17:13:12.729Z,5.13
2023-04-11T17:15:40.847Z,6.70
2023-04-11T17:18:08.779Z,10.63
2023-04-11T17:20:38.142Z,5.57
2023-04-11T17:23:06.286Z,10.98
2023-04-11T17:25:34.120Z,3.35
2023-04-11T17:28:02.111Z,7.75
2023-04-11T17:30:31.744Z,5.38
2023-04-11T17:33:00.072Z,4.95
2023-04-11T17:35:28.921Z,4.07
2023-04-11T17:37:58.138Z,5.15
2023-04-11T17:40:26.000Z,6.72
2023-04-11T17:42:53.988Z,7.88
2023-04-11T17:45:22.364Z,28.63
2023-04-11T17:47:51.108Z,9.00
2023-04-11T17:50:20.112Z,8.93
2023-04-11T17:52:48.455Z,6.00
2023-04-11T17:55:19.662Z,6.78
2023-04-11T17:57:49.044Z,7.18
2023-04-11T18:00:19.491Z,5.55
2023-04-11T18:02:49.517Z,4.47
2023-04-11T18:05:23.659Z,7.57
2023-04-11T18:07:52.207Z,5.10
2023-04-11T18:10:22.886Z,4.40
2023-04-11T18:12:52.293Z,6.47
2023-04-11T18:15:20.884Z,3.33
2023-04-11T18:17:49.150Z,10.38
2023-04-11T18:20:17.004Z,5.25
2023-04-11T18:22:45.973Z,6.30
2023-04-11T18:25:14.498Z,6.57
2023-04-11T18:27:43.905Z,4.45
2023-04-11T18:30:13.542Z,8.43
2023-04-11T18:32:46.559Z,5.13
2023-04-11T18:35:17.178Z,6.72
2023-04-11T18:37:45.270Z,7.05
2023-04-11T18:40:15.398Z,6.03
2023-04-11T18:42:47.078Z,6.43
2023-04-11T18:45:17.769Z,6.38
2023-04-11T18:47:46.395Z,4.82
2023-04-11T18:50:14.848Z,7.47
2023-04-11T18:52:44.957Z,6.70
2023-04-11T18:55:13.614Z,6.10
2023-04-11T18:57:43.149Z,6.88
2023-04-11T19:00:18.061Z,6.18
2023-04-11T19:02:50.149Z,6.57
2023-04-11T19:05:19.271Z,7.88
2023-04-11T19:07:47.377Z,5.90
2023-04-11T19:10:15.404Z,7.63
2023-04-11T19:12:43.278Z,5.95
2023-04-11T19:15:13.564Z,9.98
2023-04-11T19:17:41.634Z,18.27
2023-04-11T19:20:12.821Z,9.38
2023-04-11T19:22:41.981Z,14.02
2023-04-11T19:25:11.782Z,12.13
2023-04-11T19:27:41.517Z,11.95
2023-04-11T19:30:11.029Z,11.60
2023-04-11T19:32:43.387Z,11.45
2023-04-11T19:35:12.367Z,13.55
2023-04-11T19:37:40.826Z,13.65
2023-04-11T19:40:11.120Z,10.15
2023-04-11T19:42:40.300Z,9.98
2023-04-11T19:45:11.228Z,7.55
2023-04-11T19:47:41.318Z,10.57
2023-04-11T19:50:12.010Z,10.02
2023-04-11T19:52:40.071Z,10.00
2023-04-11T19:55:09.419Z,7.93
2023-04-11T19:57:38.304Z,10.63
2023-04-11T20:00:12.101Z,9.10
2023-04-11T20:02:45.278Z,11.10
2023-04-11T20:05:14.717Z,6.53
2023-04-11T20:07:43.955Z,9.68
2023-04-11T20:10:12.580Z,8.50
2023-04-11T20:12:40.554Z,9.52
2023-04-11T20:15:09.827Z,8.60
2023-04-11T20:17:37.817Z,6.32
2023-04-11T20:20:10.937Z,10.68
2023-04-11T20:22:39.097Z,6.68
2023-04-11T20:25:11.239Z,6.63
2023-04-11T20:27:39.458Z,8.77
2023-04-11T20:30:10.638Z,11.20
2023-04-11T20:32:39.082Z,8.02
2023-04-11T20:35:10.216Z,8.05
2023-04-11T20:37:38.399Z,6.18
2023-04-11T20:40:10.028Z,11.70
2023-04-11T20:42:40.117Z,7.90
2023-04-11T20:45:10.427Z,8.45
2023-04-11T20:47:38.665Z,19.55
2023-04-11T20:50:10.539Z,8.57
2023-04-11T20:52:41.432Z,9.32
2023-04-11T20:55:10.677Z,7.22
2023-04-11T20:57:38.586Z,9.73
2023-04-11T21:00:12.517Z,5.97
2023-04-11T21:02:41.974Z,6.15
2023-04-11T21:05:11.868Z,9.77
2023-04-11T21:07:40.049Z,7.47
2023-04-11T21:10:09.173Z,7.65
2023-04-11T21:12:37.505Z,8.57
2023-04-11T21:15:06.783Z,14.98
2023-04-11T21:17:37.203Z,9.32
2023-04-11T21:20:10.118Z,6.80
2023-04-11T21:22:40.242Z,11.40
2023-04-11T21:25:09.381Z,10.40
2023-04-11T21:27:37.224Z,11.55
2023-04-11T21:30:06.228Z,9.75
2023-04-11T21:32:34.182Z,9.18
2023-04-11T21:35:02.335Z,11.55
2023-04-11T21:37:30.367Z,8.75
2023-04-11T21:39:59.690Z,9.63
2023-04-11T21:42:27.620Z,11.75
2023-04-11T21:44:55.541Z,14.60
2023-04-11T21:47:23.386Z,8.05
2023-04-11T21:49:51.344Z,8.43
2023-04-11T21:52:19.209Z,10.88
2023-04-11T21:54:47.818Z,8.00
2023-04-11T21:57:17.045Z,9.63
2023-04-11T21:59:44.905Z,12.07
2023-04-11T22:02:12.899Z,12.70
2023-04-11T22:04:51.696Z,8.98
2023-04-11T22:07:31.651Z,9.00
2023-04-11T22:10:03.803Z,11.57
2023-04-11T22:12:33.137Z,8.15
2023-04-11T22:15:00.932Z,8.60
2023-04-11T22:17:31.409Z,8.07
2023-04-11T22:19:59.416Z,8.25
2023-04-11T22:22:30.151Z,9.77
2023-04-11T22:24:59.125Z,7.78
2023-04-11T22:27:29.419Z,8.40
2023-04-11T22:29:59.745Z,6.40
2023-04-11T22:32:28.230Z,7.15
2023-04-11T22:34:56.248Z,10.38
2023-04-11T22:37:24.110Z,8.77
2023-04-11T22:39:51.961Z,4.60
2023-04-11T22:42:19.979Z,8.57
2023-04-11T22:44:47.762Z,7.93
2023-04-11T22:47:17.065Z,6.72
2023-04-11T22:49:45.868Z,8.77
2023-04-11T22:52:14.892Z,8.25
2023-04-11T22:54:43.887Z,7.65
2023-04-11T22:57:11.693Z,9.38
2023-04-11T22:59:39.502Z,9.18
2023-04-11T23:02:07.498Z,9.57
2023-04-11T23:04:37.024Z,8.27
2023-04-11T23:07:05.102Z,9.77
2023-04-11T23:09:33.064Z,9.10
2023-04-11T23:12:01.030Z,10.70
2023-04-11T23:14:31.347Z,6.20
2023-04-11T23:16:59.336Z,7.80
2023-04-11T23:19:27.351Z,6.85
2023-04-11T23:21:56.551Z,8.20
2023-04-11T23:24:24.496Z,6.40
2023-04-11T23:26:52.494Z,6.40
2023-04-11T23:29:20.446Z,5.85
2023-04-11T23:31:48.216Z,8.23
2023-04-11T23:34:16.139Z,8.40
2023-04-11T23:36:44.283Z,6.82
2023-04-11T23:39:13.476Z,7.10
2023-04-11T23:41:41.476Z,7.70
2023-04-11T23:44:09.306Z,6.35
2023-04-11T23:46:37.316Z,5.35
2023-04-11T23:49:05.968Z,8.60
2023-04-11T23:51:33.882Z,4.25
2023-04-11T23:54:01.928Z,7.45
2023-04-11T23:56:31.122Z,6.32
2023-04-11T23:58:58.976Z,6.55
